AIQ3131 VTSC-VTBD
Flight info
| Callsign | AIQ3131 |
|---|---|
| Flight time | N/A |
| Altitude | 36000 |
| Route | NTW W19 UPNEP M626 SORTO M769 GOKEX Y96 EMTIX/N0450F370 Y99 HOTEL SABAI3A |
| Aircraft | A320/M-SDE3FGHIRWY/LB1 |
Departure
| Time | 2026-04-16 13:56 |
|---|---|
| Airport | Narathiwat Airport (VTSC) |
Arrival
| Time | N/A |
|---|---|
| Airport | Don Mueang International Airport (VTBD) |
| Time | Latitude | Longitude | Altitude | Speed | Heading |
|---|---|---|---|---|---|
| 2026-04-16 13:43 | 6.52329 | 101.74800 | 23 ft | 0 kts | 114° |
| 2026-04-16 13:46 | 6.52330 | 101.74799 | 23 ft | 1 kts | 114° |
| 2026-04-16 13:46 | 6.52335 | 101.74788 | 24 ft | 3 kts | 142° |
| 2026-04-16 13:46 | 6.52344 | 101.74785 | 26 ft | 3 kts | 213° |
| 2026-04-16 13:46 | 6.52359 | 101.74796 | 27 ft | 2 kts | 217° |
| 2026-04-16 13:47 | 6.52365 | 101.74800 | 30 ft | 0 kts | 217° |
| 2026-04-16 13:50 | 6.52356 | 101.74790 | 28 ft | 7 kts | 236° |
| 2026-04-16 13:50 | 6.52325 | 101.74726 | 26 ft | 11 kts | 240° |
| 2026-04-16 13:51 | 6.52283 | 101.74673 | 26 ft | 9 kts | 231° |
| 2026-04-16 13:51 | 6.52275 | 101.74608 | 27 ft | 12 kts | 287° |
| 2026-04-16 13:51 | 6.52301 | 101.74545 | 28 ft | 8 kts | 293° |
| 2026-04-16 13:51 | 6.52308 | 101.74503 | 29 ft | 5 kts | 260° |
| 2026-04-16 13:52 | 6.52270 | 101.74462 | 29 ft | 11 kts | 211° |
| 2026-04-16 13:52 | 6.52190 | 101.74427 | 28 ft | 12 kts | 202° |
| 2026-04-16 13:52 | 6.52112 | 101.74393 | 28 ft | 14 kts | 204° |
| 2026-04-16 13:52 | 6.51992 | 101.74341 | 28 ft | 24 kts | 203° |
| 2026-04-16 13:53 | 6.51814 | 101.74265 | 27 ft | 32 kts | 204° |
| 2026-04-16 13:53 | 6.51592 | 101.74169 | 26 ft | 38 kts | 203° |
| 2026-04-16 13:53 | 6.51339 | 101.74060 | 27 ft | 39 kts | 203° |
| 2026-04-16 13:53 | 6.51097 | 101.73957 | 27 ft | 38 kts | 204° |
| 2026-04-16 13:54 | 6.50885 | 101.73864 | 26 ft | 24 kts | 202° |
| 2026-04-16 13:54 | 6.50770 | 101.73825 | 28 ft | 9 kts | 240° |
| 2026-04-16 13:54 | 6.50778 | 101.73816 | 28 ft | 1 kts | 360° |
| 2026-04-16 13:54 | 6.50782 | 101.73819 | 28 ft | 0 kts | 20° |
| 2026-04-16 13:55 | 6.50861 | 101.73853 | 26 ft | 44 kts | 24° |
| 2026-04-16 13:55 | 6.51368 | 101.74072 | 27 ft | 112 kts | 23° |
| 2026-04-16 13:55 | 6.52246 | 101.74466 | 74 ft | 158 kts | 26° |
| 2026-04-16 13:56 | 6.53248 | 101.74911 | 691 ft | 157 kts | 27° |
| 2026-04-16 13:56 | 6.54266 | 101.75344 | 1293 ft | 159 kts | 28° |
| 2026-04-16 13:56 | 6.55332 | 101.75800 | 1635 ft | 177 kts | 24° |
| 2026-04-16 13:56 | 6.56633 | 101.75883 | 1902 ft | 206 kts | 343° |
| 2026-04-16 13:57 | 6.58003 | 101.75277 | 2219 ft | 230 kts | 333° |
| 2026-04-16 13:57 | 6.59478 | 101.74439 | 2589 ft | 255 kts | 331° |
| 2026-04-16 13:57 | 6.61069 | 101.73497 | 3115 ft | 271 kts | 331° |
| 2026-04-16 13:58 | 6.64391 | 101.71584 | 4789 ft | 276 kts | 331° |
| 2026-04-16 13:58 | 6.66061 | 101.70657 | 5613 ft | 279 kts | 332° |
| 2026-04-16 13:58 | 6.67777 | 101.69726 | 6431 ft | 281 kts | 332° |
| 2026-04-16 13:58 | 6.69512 | 101.68796 | 7174 ft | 285 kts | 333° |
| 2026-04-16 13:59 | 6.71277 | 101.67855 | 7931 ft | 288 kts | 333° |
| 2026-04-16 13:59 | 6.73061 | 101.66907 | 8682 ft | 291 kts | 333° |
| 2026-04-16 13:59 | 6.74864 | 101.65952 | 9397 ft | 295 kts | 334° |
| 2026-04-16 13:59 | 6.76701 | 101.64977 | 10075 ft | 300 kts | 334° |
| 2026-04-16 14:00 | 6.78614 | 101.63959 | 10310 ft | 322 kts | 333° |
| 2026-04-16 14:00 | 6.80662 | 101.62869 | 10532 ft | 341 kts | 334° |
| 2026-04-16 14:00 | 6.82766 | 101.61748 | 11058 ft | 348 kts | 334° |
| 2026-04-16 14:00 | 6.84924 | 101.60599 | 11687 ft | 352 kts | 334° |
| 2026-04-16 14:01 | 6.87099 | 101.59439 | 12327 ft | 355 kts | 334° |
| 2026-04-16 14:01 | 6.89293 | 101.58269 | 12953 ft | 358 kts | 334° |
| 2026-04-16 14:01 | 6.91513 | 101.57097 | 13568 ft | 361 kts | 335° |
| 2026-04-16 14:01 | 6.93755 | 101.56012 | 14100 ft | 364 kts | 336° |
| 2026-04-16 14:02 | 6.96078 | 101.54966 | 14608 ft | 367 kts | 338° |
| 2026-04-16 14:02 | 6.98444 | 101.53939 | 15109 ft | 371 kts | 338° |
| 2026-04-16 14:02 | 7.00834 | 101.52907 | 15600 ft | 375 kts | 338° |
| 2026-04-16 14:02 | 7.03248 | 101.51854 | 16100 ft | 379 kts | 338° |
| 2026-04-16 14:03 | 7.05677 | 101.50781 | 16584 ft | 383 kts | 337° |
| 2026-04-16 14:03 | 7.08130 | 101.49685 | 17096 ft | 386 kts | 337° |
| 2026-04-16 14:03 | 7.10594 | 101.48575 | 17570 ft | 390 kts | 337° |
| 2026-04-16 14:03 | 7.13057 | 101.47463 | 18036 ft | 394 kts | 337° |
| 2026-04-16 14:04 | 7.15579 | 101.46326 | 18464 ft | 398 kts | 337° |
| 2026-04-16 14:04 | 7.18123 | 101.45181 | 18872 ft | 401 kts | 336° |
| 2026-04-16 14:04 | 7.20688 | 101.44028 | 19291 ft | 404 kts | 336° |
| 2026-04-16 14:04 | 7.23253 | 101.42874 | 19744 ft | 405 kts | 336° |
| 2026-04-16 14:05 | 7.25852 | 101.41704 | 20130 ft | 409 kts | 336° |
| 2026-04-16 14:05 | 7.28429 | 101.40545 | 20534 ft | 412 kts | 336° |
| 2026-04-16 14:05 | 7.31061 | 101.39362 | 20893 ft | 415 kts | 336° |
| 2026-04-16 14:05 | 7.33711 | 101.38171 | 21326 ft | 417 kts | 336° |
| 2026-04-16 14:06 | 7.36374 | 101.36973 | 21728 ft | 419 kts | 336° |
| 2026-04-16 14:06 | 7.39050 | 101.35767 | 22145 ft | 421 kts | 335° |
| 2026-04-16 14:06 | 7.41737 | 101.34555 | 22514 ft | 424 kts | 335° |
| 2026-04-16 14:06 | 7.44439 | 101.33337 | 22900 ft | 427 kts | 335° |
| 2026-04-16 14:07 | 7.47135 | 101.32123 | 23248 ft | 430 kts | 335° |
| 2026-04-16 14:07 | 7.49886 | 101.30886 | 23623 ft | 431 kts | 335° |
| 2026-04-16 14:07 | 7.52632 | 101.29651 | 23945 ft | 433 kts | 335° |
| 2026-04-16 14:07 | 7.55360 | 101.28426 | 24255 ft | 435 kts | 335° |
| 2026-04-16 14:08 | 7.58139 | 101.27179 | 24566 ft | 437 kts | 335° |
| 2026-04-16 14:08 | 7.60921 | 101.25930 | 24882 ft | 439 kts | 335° |
| 2026-04-16 14:08 | 7.63717 | 101.24674 | 25191 ft | 441 kts | 335° |
| 2026-04-16 14:08 | 7.66525 | 101.23410 | 25510 ft | 442 kts | 335° |
| 2026-04-16 14:09 | 7.69341 | 101.22140 | 25824 ft | 444 kts | 335° |
| 2026-04-16 14:09 | 7.72165 | 101.20867 | 26128 ft | 446 kts | 335° |
| 2026-04-16 14:09 | 7.75004 | 101.19587 | 26425 ft | 447 kts | 335° |
| 2026-04-16 14:09 | 7.77852 | 101.18301 | 26715 ft | 449 kts | 334° |
| 2026-04-16 14:10 | 7.80712 | 101.17009 | 27005 ft | 451 kts | 334° |
| 2026-04-16 14:10 | 7.83588 | 101.15710 | 27302 ft | 452 kts | 334° |
| 2026-04-16 14:10 | 7.86429 | 101.14427 | 27583 ft | 454 kts | 334° |
| 2026-04-16 14:10 | 7.89324 | 101.13121 | 27865 ft | 456 kts | 334° |
| 2026-04-16 14:11 | 7.92233 | 101.11808 | 28137 ft | 458 kts | 334° |
| 2026-04-16 14:11 | 7.95152 | 101.10493 | 28421 ft | 459 kts | 334° |
| 2026-04-16 14:11 | 7.98053 | 101.09185 | 28702 ft | 461 kts | 334° |
| 2026-04-16 14:11 | 8.00983 | 101.07860 | 28970 ft | 463 kts | 334° |
| 2026-04-16 14:12 | 8.03932 | 101.06530 | 29233 ft | 464 kts | 334° |
| 2026-04-16 14:12 | 8.06919 | 101.05263 | 29482 ft | 467 kts | 339° |
| 2026-04-16 14:12 | 8.10037 | 101.04270 | 29753 ft | 468 kts | 343° |
| 2026-04-16 14:12 | 8.13157 | 101.03446 | 30006 ft | 470 kts | 344° |
| 2026-04-16 14:13 | 8.16342 | 101.02662 | 30218 ft | 471 kts | 345° |
| 2026-04-16 14:13 | 8.19543 | 101.01912 | 30420 ft | 473 kts | 346° |
| 2026-04-16 14:13 | 8.22771 | 101.01168 | 30618 ft | 474 kts | 346° |
| 2026-04-16 14:13 | 8.26001 | 101.00421 | 30811 ft | 476 kts | 346° |
| 2026-04-16 14:14 | 8.29241 | 100.99662 | 31006 ft | 477 kts | 345° |
| 2026-04-16 14:14 | 8.32474 | 100.98893 | 31266 ft | 477 kts | 345° |
| 2026-04-16 14:14 | 8.35663 | 100.98126 | 31550 ft | 476 kts | 345° |
| 2026-04-16 14:14 | 8.38884 | 100.97346 | 31840 ft | 476 kts | 345° |
| 2026-04-16 14:15 | 8.42114 | 100.96562 | 32125 ft | 475 kts | 345° |
| 2026-04-16 14:15 | 8.45336 | 100.95781 | 32410 ft | 474 kts | 345° |
| 2026-04-16 14:15 | 8.48517 | 100.95011 | 32700 ft | 474 kts | 345° |
| 2026-04-16 14:15 | 8.51739 | 100.94231 | 32984 ft | 473 kts | 345° |
| 2026-04-16 14:16 | 8.54951 | 100.93458 | 33270 ft | 473 kts | 346° |
| 2026-04-16 14:16 | 8.58113 | 100.92699 | 33580 ft | 472 kts | 345° |
| 2026-04-16 14:16 | 8.61305 | 100.91932 | 33911 ft | 470 kts | 345° |
| 2026-04-16 14:16 | 8.64487 | 100.91165 | 34179 ft | 469 kts | 345° |
| 2026-04-16 14:17 | 8.67674 | 100.90395 | 34432 ft | 469 kts | 345° |
| 2026-04-16 14:17 | 8.70846 | 100.89631 | 34678 ft | 468 kts | 345° |
| 2026-04-16 14:17 | 8.74017 | 100.88868 | 34912 ft | 467 kts | 345° |
| 2026-04-16 14:17 | 8.77181 | 100.88106 | 35147 ft | 467 kts | 345° |
| 2026-04-16 14:18 | 8.80337 | 100.87345 | 35380 ft | 466 kts | 345° |
| 2026-04-16 14:18 | 8.83453 | 100.86591 | 35592 ft | 466 kts | 345° |
| 2026-04-16 14:18 | 8.86600 | 100.85829 | 35792 ft | 466 kts | 345° |
| 2026-04-16 14:18 | 8.89753 | 100.85068 | 35864 ft | 464 kts | 345° |
| 2026-04-16 14:19 | 8.96024 | 100.83562 | 35876 ft | 462 kts | 345° |
| 2026-04-16 14:19 | 9.02276 | 100.82058 | 35877 ft | 461 kts | 345° |
| 2026-04-16 14:20 | 9.08523 | 100.80546 | 35874 ft | 461 kts | 345° |
| 2026-04-16 14:20 | 9.14767 | 100.79029 | 35873 ft | 461 kts | 345° |
| 2026-04-16 14:21 | 9.20974 | 100.77527 | 35872 ft | 461 kts | 345° |
| 2026-04-16 14:21 | 9.27229 | 100.76015 | 35880 ft | 461 kts | 345° |
| 2026-04-16 14:22 | 9.33446 | 100.74512 | 35880 ft | 461 kts | 345° |
| 2026-04-16 14:22 | 9.39684 | 100.73003 | 35881 ft | 460 kts | 345° |
| 2026-04-16 14:23 | 9.45915 | 100.71490 | 35883 ft | 460 kts | 345° |
| 2026-04-16 14:23 | 9.52148 | 100.69974 | 35885 ft | 460 kts | 345° |
| 2026-04-16 14:24 | 9.58379 | 100.68459 | 35881 ft | 460 kts | 345° |
| 2026-04-16 14:24 | 9.64607 | 100.66951 | 35877 ft | 460 kts | 345° |
| 2026-04-16 14:25 | 9.70799 | 100.65454 | 35887 ft | 460 kts | 345° |
| 2026-04-16 14:25 | 9.77024 | 100.63944 | 35887 ft | 459 kts | 345° |
| 2026-04-16 14:26 | 9.83210 | 100.62444 | 35885 ft | 459 kts | 345° |
| 2026-04-16 14:26 | 9.88382 | 100.61185 | 35881 ft | 458 kts | 345° |
| 2026-04-16 14:27 | 9.94588 | 100.59673 | 35881 ft | 458 kts | 345° |
| 2026-04-16 14:27 | 10.01803 | 100.57921 | 35888 ft | 458 kts | 345° |
| 2026-04-16 14:28 | 10.06965 | 100.56672 | 35882 ft | 457 kts | 345° |
| 2026-04-16 14:28 | 10.13165 | 100.55165 | 35886 ft | 456 kts | 345° |
| 2026-04-16 14:29 | 10.19298 | 100.53671 | 35885 ft | 456 kts | 345° |
| 2026-04-16 14:29 | 10.25488 | 100.52156 | 35884 ft | 455 kts | 345° |
| 2026-04-16 14:30 | 10.31614 | 100.50667 | 35881 ft | 455 kts | 345° |
| 2026-04-16 14:30 | 10.37796 | 100.49170 | 35875 ft | 455 kts | 345° |
| 2026-04-16 14:31 | 10.43934 | 100.47674 | 35878 ft | 455 kts | 345° |
| 2026-04-16 14:31 | 10.50058 | 100.46178 | 35880 ft | 454 kts | 345° |
| 2026-04-16 14:32 | 10.56213 | 100.44678 | 35875 ft | 454 kts | 345° |
| 2026-04-16 14:32 | 10.62373 | 100.43176 | 35875 ft | 454 kts | 345° |
| 2026-04-16 14:33 | 10.68495 | 100.41682 | 35879 ft | 454 kts | 345° |
| 2026-04-16 14:33 | 10.74648 | 100.40181 | 35883 ft | 454 kts | 345° |
| 2026-04-16 14:34 | 10.80801 | 100.38676 | 35883 ft | 454 kts | 345° |
| 2026-04-16 14:34 | 10.86913 | 100.37177 | 35881 ft | 454 kts | 345° |
| 2026-04-16 14:35 | 10.93064 | 100.35670 | 35888 ft | 454 kts | 345° |
| 2026-04-16 14:35 | 10.99216 | 100.34167 | 35884 ft | 453 kts | 345° |
| 2026-04-16 14:36 | 11.05318 | 100.32677 | 35888 ft | 453 kts | 345° |
| 2026-04-16 14:36 | 11.11463 | 100.31173 | 35886 ft | 453 kts | 345° |
| 2026-04-16 14:37 | 11.17571 | 100.29677 | 35880 ft | 453 kts | 345° |
| 2026-04-16 14:37 | 11.23711 | 100.28170 | 35888 ft | 453 kts | 345° |
| 2026-04-16 14:38 | 11.29851 | 100.26670 | 35890 ft | 453 kts | 345° |
| 2026-04-16 14:38 | 11.35965 | 100.25168 | 35891 ft | 453 kts | 345° |
| 2026-04-16 14:39 | 11.42091 | 100.23659 | 35889 ft | 453 kts | 345° |
| 2026-04-16 14:39 | 11.48223 | 100.22152 | 35891 ft | 453 kts | 345° |
| 2026-04-16 14:40 | 11.54325 | 100.20656 | 35894 ft | 453 kts | 345° |
| 2026-04-16 14:40 | 11.60455 | 100.19150 | 35898 ft | 452 kts | 345° |
| 2026-04-16 14:41 | 11.66586 | 100.17642 | 35894 ft | 452 kts | 345° |
| 2026-04-16 14:41 | 11.72760 | 100.16572 | 35902 ft | 454 kts | 360° |
| 2026-04-16 14:42 | 11.79046 | 100.16810 | 35894 ft | 454 kts | 1° |
| 2026-04-16 14:42 | 11.85366 | 100.17099 | 35888 ft | 454 kts | 1° |
| 2026-04-16 14:43 | 11.91697 | 100.17386 | 35892 ft | 454 kts | 0° |
| 2026-04-16 14:43 | 11.97984 | 100.17659 | 35892 ft | 455 kts | 0° |
| 2026-04-16 14:44 | 12.04312 | 100.17932 | 35886 ft | 455 kts | 0° |
| 2026-04-16 14:44 | 12.10648 | 100.18209 | 35889 ft | 455 kts | 0° |
| 2026-04-16 14:45 | 12.16936 | 100.18489 | 35887 ft | 455 kts | 0° |
| 2026-04-16 14:45 | 12.23279 | 100.18762 | 35888 ft | 455 kts | 0° |
| 2026-04-16 14:46 | 12.29574 | 100.19033 | 35882 ft | 455 kts | 0° |
| 2026-04-16 14:46 | 12.35904 | 100.19311 | 35882 ft | 455 kts | 0° |
| 2026-04-16 14:47 | 12.42242 | 100.19585 | 35886 ft | 455 kts | 0° |
| 2026-04-16 14:47 | 12.48543 | 100.19859 | 35880 ft | 455 kts | 0° |
| 2026-04-16 14:48 | 12.54870 | 100.20134 | 35699 ft | 455 kts | 0° |
| 2026-04-16 14:48 | 12.58033 | 100.20271 | 35457 ft | 454 kts | 0° |
| 2026-04-16 14:48 | 12.61183 | 100.20409 | 35028 ft | 451 kts | 0° |
| 2026-04-16 14:49 | 12.64286 | 100.20547 | 34476 ft | 449 kts | 0° |
| 2026-04-16 14:49 | 12.67406 | 100.20684 | 33914 ft | 448 kts | 0° |
| 2026-04-16 14:49 | 12.70523 | 100.20820 | 33310 ft | 447 kts | 0° |
| 2026-04-16 14:49 | 12.73628 | 100.20956 | 32763 ft | 444 kts | 0° |
| 2026-04-16 14:50 | 12.76711 | 100.21089 | 32203 ft | 442 kts | 0° |
| 2026-04-16 14:50 | 12.79774 | 100.21221 | 31664 ft | 440 kts | 0° |
| 2026-04-16 14:50 | 12.82824 | 100.21355 | 31120 ft | 438 kts | 0° |
| 2026-04-16 14:50 | 12.85864 | 100.21491 | 30589 ft | 436 kts | 0° |
| 2026-04-16 14:51 | 12.88903 | 100.21624 | 30052 ft | 435 kts | 0° |
| 2026-04-16 14:51 | 12.91920 | 100.21755 | 29465 ft | 434 kts | 0° |
| 2026-04-16 14:51 | 12.94925 | 100.21887 | 28962 ft | 430 kts | 0° |
| 2026-04-16 14:51 | 12.97876 | 100.22019 | 28444 ft | 426 kts | 0° |